Time;durP1;ratioP1;P1;durP2;ratioP2;P2;SDS_P1;SDS_P2;PMS_P1;PMS_P2;Temp;Humidity;BMP_temperature;BMP_pressure;BME280_temperature;BME280_humidity;BME280_pressure;Samples;Min_cycle;Max_cycle;Signal;HPM_P1;HPM_P2
2022/08/23 00:01:20;;;;;;;3.80;3.30;;;;;;;21.12;57.54;100076.50;5086595;28;20408;-60
2022/08/23 00:03:50;;;;;;;6.45;3.47;;;;;;;20.86;58.39;100072.72;5093880;28;20056;-60
2022/08/23 00:06:22;;;;;;;5.28;3.03;;;;;;;20.77;58.60;100077.94;5077660;28;20059;-60
2022/08/23 00:08:51;;;;;;;4.57;3.17;;;;;;;20.76;58.76;100079.13;5074443;28;20496;-59
2022/08/23 00:11:27;;;;;;;6.53;3.63;;;;;;;20.69;58.77;100074.22;5073603;28;20052;-60
2022/08/23 00:13:55;;;;;;;4.35;3.40;;;;;;;20.59;59.07;100078.59;5073226;28;20119;-60
2022/08/23 00:16:26;;;;;;;6.35;3.47;;;;;;;20.57;59.19;100078.13;5066953;28;20052;-59
2022/08/23 00:18:54;;;;;;;4.55;3.17;;;;;;;20.53;58.98;100071.63;5075011;28;20053;-60
2022/08/23 00:21:22;;;;;;;5.18;3.38;;;;;;;20.45;59.28;100070.78;5073703;28;20052;-60
2022/08/23 00:23:50;;;;;;;4.07;3.25;;;;;;;20.42;59.13;100079.22;5073763;28;20055;-60
2022/08/23 00:26:19;;;;;;;6.10;3.67;;;;;;;20.36;59.03;100072.31;5072867;28;20056;-61
2022/08/23 00:28:46;;;;;;;6.70;3.38;;;;;;;20.24;59.31;100070.56;5073807;28;20053;-60
2022/08/23 00:31:14;;;;;;;4.60;3.58;;;;;;;20.25;59.17;100061.72;5076242;28;20044;-61
2022/08/23 00:33:41;;;;;;;5.25;3.10;;;;;;;20.21;59.13;100065.72;5093491;28;20056;-60
2022/08/23 00:36:10;;;;;;;4.90;3.38;;;;;;;20.19;59.29;100059.63;5087287;28;20048;-59
2022/08/23 00:38:37;;;;;;;8.02;4.05;;;;;;;20.15;59.60;100064.44;5073271;28;20067;-60
2022/08/23 00:41:05;;;;;;;4.93;3.63;;;;;;;20.11;59.83;100061.56;5072623;28;20048;-60
2022/08/23 00:49:29;;;;;;;4.70;3.45;;;;;;;19.93;60.32;100058.59;5076882;28;20079;-60
2022/08/23 00:52:07;;;;;;;5.78;3.50;;;;;;;19.87;60.27;100058.13;5073020;28;20051;-60
2022/08/23 00:54:36;;;;;;;3.92;3.42;;;;;;;19.84;60.33;100056.09;5072883;28;20059;-59
2022/08/23 00:57:05;;;;;;;;;;;;;;;19.74;60.92;100050.28;5080899;28;20049;-60
2022/08/23 00:59:32;;;;;;;5.78;3.80;;;;;;;19.66;61.12;100060.69;5072866;28;20291;-59
2022/08/23 01:02:00;;;;;;;4.13;3.67;;;;;;;19.62;61.43;100059.84;5072725;28;20041;-60
2022/08/23 01:04:31;;;;;;;3.90;3.45;;;;;;;19.58;61.52;100062.59;5072149;28;20413;-60
2022/08/23 01:07:09;;;;;;;5.28;3.42;;;;;;;19.55;61.30;100051.25;5072423;28;20075;-60
2022/08/23 01:09:38;;;;;;;4.63;3.60;;;;;;;19.50;61.36;100051.63;5072726;28;20056;-60
2022/08/23 01:12:09;;;;;;;5.82;3.83;;;;;;;19.44;61.35;100057.63;5077179;28;20401;-59
2022/08/23 01:14:44;;;;;;;4.45;3.80;;;;;;;19.43;61.24;100055.19;5072494;28;20048;-60
2022/08/23 01:17:16;;;;;;;3.88;3.47;;;;;;;19.39;61.17;100052.28;5072597;28;20056;-59
2022/08/23 01:19:49;;;;;;;5.10;3.53;;;;;;;19.31;61.64;100058.25;5072512;28;20413;-60
2022/08/23 01:22:24;;;;;;;5.15;3.55;;;;;;;19.26;61.40;100048.91;5072643;28;20048;-59
2022/08/23 01:24:54;;;;;;;5.50;3.00;;;;;;;19.24;61.53;100056.16;5075792;28;20139;-59
2022/08/23 01:27:22;;;;;;;5.85;4.10;;;;;;;19.20;61.71;100070.22;5090901;28;20493;-60
2022/08/23 01:29:49;;;;;;;4.88;3.70;;;;;;;19.17;61.74;100070.16;5072720;28;20059;-60
2022/08/23 01:32:16;;;;;;;7.18;4.07;;;;;;;19.11;62.00;100060.38;5072581;28;20053;-60
2022/08/23 01:34:44;;;;;;;5.22;3.60;;;;;;;19.08;62.17;100064.78;5052427;28;20057;-60
2022/08/23 01:37:12;;;;;;;5.30;4.05;;;;;;;18.99;62.25;100070.72;5052867;28;20482;-60
2022/08/23 01:39:39;;;;;;;4.45;4.05;;;;;;;18.96;62.16;100071.50;5072079;28;20543;-59
2022/08/23 01:42:11;;;;;;;5.93;4.03;;;;;;;18.90;62.30;100063.72;5092777;28;20048;-59
2022/08/23 01:44:38;;;;;;;6.03;3.92;;;;;;;18.84;62.61;100068.91;5075123;28;20485;-59
2022/08/23 01:47:09;;;;;;;5.63;4.00;;;;;;;18.79;62.77;100066.41;5072217;28;20049;-60
2022/08/23 01:49:36;;;;;;;4.28;3.88;;;;;;;18.79;63.03;100066.41;5071666;28;20052;-59
2022/08/23 01:52:04;;;;;;;5.82;4.20;;;;;;;18.75;63.03;100068.31;5071836;28;20055;-60
2022/08/23 01:54:31;;;;;;;4.47;4.05;;;;;;;18.70;63.36;100068.66;5078302;28;20055;-59
2022/08/23 01:57:01;;;;;;;5.63;4.20;;;;;;;18.65;63.23;100076.25;5092492;28;20056;-59
2022/08/23 01:59:29;;;;;;;;;;;;;;;18.56;63.78;100070.06;5081956;28;20056;-59
2022/08/23 02:01:57;;;;;;;4.93;4.00;;;;;;;18.52;63.77;100069.19;5072335;28;19927;-59
2022/08/23 02:04:24;;;;;;;5.20;4.13;;;;;;;18.51;63.95;100066.75;5071647;28;20413;-60
2022/08/23 02:06:51;;;;;;;5.75;4.20;;;;;;;18.50;63.98;100073.56;5072327;28;20064;-59
2022/08/23 02:09:19;;;;;;;4.60;3.95;;;;;;;18.48;63.96;100073.97;5071791;28;20134;-59
2022/08/23 02:11:47;;;;;;;5.35;4.15;;;;;;;18.45;63.84;100075.50;5071784;28;20051;-59
2022/08/23 02:14:18;;;;;;;4.47;4.07;;;;;;;18.40;64.15;100070.22;5071953;28;20392;-59
2022/08/23 02:16:50;;;;;;;4.80;4.22;;;;;;;18.35;64.19;100076.19;5068364;28;20045;-60
2022/08/23 02:19:18;;;;;;;6.05;4.63;;;;;;;18.28;64.68;100073.22;5087879;28;20071;-60
2022/08/23 02:21:46;;;;;;;6.18;4.32;;;;;;;18.25;64.84;100077.63;5071724;28;20488;-60
2022/08/23 02:24:16;;;;;;;5.63;4.47;;;;;;;18.24;64.82;100075.97;5070735;28;20052;-59
2022/08/23 02:26:46;;;;;;;7.25;4.72;;;;;;;18.21;65.15;100073.91;5071902;28;20049;-59
2022/08/23 02:29:14;;;;;;;;;;;;;;;18.14;65.39;100082.25;5072466;28;20057;-61
2022/08/23 02:31:43;;;;;;;5.95;4.65;;;;;;;18.13;65.26;100074.97;5071405;28;19921;-60
2022/08/23 02:34:12;;;;;;;5.78;4.70;;;;;;;18.13;65.27;100074.16;5072160;28;20401;-59
2022/08/23 02:36:40;;;;;;;6.38;5.00;;;;;;;18.08;65.39;100074.47;5071540;28;20059;-59
2022/08/23 02:39:08;;;;;;;5.30;4.50;;;;;;;18.09;65.52;100073.28;5088478;28;20052;-60
2022/08/23 02:41:36;;;;;;;8.63;4.63;;;;;;;18.06;65.60;100074.88;5074627;28;20409;-60
2022/08/23 02:44:04;;;;;;;5.05;4.38;;;;;;;18.04;65.77;100077.25;5071977;28;20077;-60
2022/08/23 02:46:31;;;;;;;6.38;4.53;;;;;;;18.02;65.84;100073.97;5071253;28;20053;-60
2022/08/23 02:48:59;;;;;;;5.20;4.70;;;;;;;17.99;66.10;100077.53;5071967;28;20049;-60
2022/08/23 02:51:28;;;;;;;5.75;4.70;;;;;;;17.95;66.21;100079.47;5072660;28;20076;-59
2022/08/23 02:53:55;;;;;;;6.28;5.25;;;;;;;17.95;66.35;100087.94;5092231;28;20044;-66
2022/08/23 02:56:23;;;;;;;5.28;4.43;;;;;;;17.96;66.13;100086.75;5080938;28;20059;-66
2022/08/23 02:58:50;;;;;;;5.40;4.90;;;;;;;17.91;66.18;100090.69;5075176;28;20060;-66
2022/08/23 03:01:20;;;;;;;5.97;4.88;;;;;;;17.88;66.35;100088.63;5075120;28;20056;-65
2022/08/23 03:03:48;;;;;;;;;;;;;;;17.80;66.79;100098.88;5075284;28;20405;-66
2022/08/23 03:06:16;;;;;;;7.13;4.77;;;;;;;17.80;66.60;100093.25;5072573;28;19932;-66
2022/08/23 03:08:45;;;;;;;6.57;5.38;;;;;;;17.80;66.83;100090.44;5086681;28;20051;-66
2022/08/23 03:11:17;;;;;;;5.80;5.00;;;;;;;17.74;67.20;100091.13;5089900;28;20060;-66
2022/08/23 03:13:45;;;;;;;5.72;4.90;;;;;;;17.73;67.00;100092.31;5074560;28;20409;-66
2022/08/23 03:16:13;;;;;;;5.20;4.70;;;;;;;17.73;66.85;100090.31;5075069;28;20049;-68
2022/08/23 03:18:40;;;;;;;6.88;4.93;;;;;;;17.72;66.87;100091.47;5074394;28;20052;-66
2022/08/23 03:21:11;;;;;;;6.75;4.78;;;;;;;17.55;67.49;100094.75;5081296;28;20048;-66
2022/08/23 03:23:39;;;;;;;5.88;4.85;;;;;;;17.52;67.50;100096.31;5074551;28;20044;-66
2022/08/23 03:26:14;;;;;;;5.32;4.82;;;;;;;17.55;67.66;100100.41;5074736;28;20413;-66
2022/08/23 03:28:43;;;;;;;7.20;5.43;;;;;;;17.54;67.83;100099.59;5073820;28;20064;-66
2022/08/23 03:31:12;;;;;;;6.70;5.93;;;;;;;17.52;67.81;100099.16;5074822;28;20055;-66
2022/08/23 03:33:40;;;;;;;6.13;5.05;;;;;;;17.52;67.97;100098.34;5074508;28;20045;-66
2022/08/23 03:36:09;;;;;;;5.63;5.05;;;;;;;17.49;68.20;100101.88;5077499;28;20052;-66
2022/08/23 03:38:38;;;;;;;6.63;5.35;;;;;;;17.50;68.20;100100.72;5087708;28;20056;-66
2022/08/23 03:41:08;;;;;;;5.70;5.10;;;;;;;17.46;68.43;100097.81;5094671;28;20481;-66
2022/08/23 03:43:36;;;;;;;7.78;5.43;;;;;;;17.45;68.38;100105.44;5077524;28;20466;-66
2022/08/23 03:46:03;;;;;;;6.88;5.60;;;;;;;17.44;68.31;100098.16;5074409;28;20102;-66
2022/08/23 03:48:31;;;;;;;6.15;5.55;;;;;;;17.44;68.71;100108.63;5073928;28;20049;-66
2022/08/23 03:50:59;;;;;;;5.97;5.38;;;;;;;17.40;68.69;100105.72;5090947;28;20052;-67
2022/08/23 03:53:26;;;;;;;8.82;5.60;;;;;;;17.38;68.77;100108.09;5081457;28;20516;-66
2022/08/23 03:55:56;;;;;;;7.80;5.40;;;;;;;17.37;68.75;100108.50;5074409;28;20048;-66
2022/08/23 03:58:28;;;;;;;5.97;5.38;;;;;;;17.35;68.75;100108.84;5074207;28;20048;-67
2022/08/23 04:00:56;;;;;;;8.02;5.38;;;;;;;17.35;68.78;100114.47;5073832;28;20135;-64
2022/08/23 04:03:27;;;;;;;7.03;5.15;;;;;;;17.35;68.67;100117.28;5071955;28;20063;-66
2022/08/23 04:05:54;;;;;;;10.27;6.30;;;;;;;17.36;68.82;100112.47;5053785;28;20053;-66
2022/08/23 04:08:22;;;;;;;6.43;5.20;;;;;;;17.30;68.84;100114.75;5068406;28;20389;-66
2022/08/23 04:10:49;;;;;;;7.10;6.10;;;;;;;17.29;68.90;100115.94;5093912;28;20051;-66
2022/08/23 04:13:16;;;;;;;7.00;6.30;;;;;;;17.24;68.91;100119.06;5087916;28;20052;-66
2022/08/23 04:15:45;;;;;;;6.25;5.32;;;;;;;17.21;68.71;100123.41;5073614;28;20059;-67
2022/08/23 04:18:12;;;;;;;6.77;4.97;;;;;;;17.24;68.33;100119.06;5080204;28;20473;-66
2022/08/23 04:20:40;;;;;;;6.63;5.03;;;;;;;17.18;68.62;100131.81;5089025;28;20493;-66
2022/08/23 04:23:07;;;;;;;5.85;4.90;;;;;;;17.17;68.61;100130.97;5054023;28;20045;-66
2022/08/23 04:25:35;;;;;;;6.68;4.80;;;;;;;17.14;68.69;100120.44;5061338;28;20061;-66
2022/08/23 04:28:03;;;;;;;6.38;5.57;;;;;;;17.16;68.80;100136.97;5065722;28;20044;-67
2022/08/23 04:30:31;;;;;;;8.25;5.95;;;;;;;17.14;68.71;100142.16;5067023;28;20420;-66
2022/08/23 04:32:59;;;;;;;7.05;5.65;;;;;;;17.13;68.90;100134.88;5067963;28;20075;-67
2022/08/23 04:35:26;;;;;;;6.47;5.17;;;;;;;17.17;68.70;100147.03;5065732;28;20052;-67
2022/08/23 04:37:54;;;;;;;8.02;5.85;;;;;;;17.14;69.08;100147.78;5064995;28;20052;-49
2022/08/23 04:43:07;;;;;;;9.05;6.03;;;;;;;16.73;70.97;100150.00;5070886;28;20051;-49
2022/08/23 04:45:37;;;;;;;6.10;5.50;;;;;;;16.81;70.84;100149.81;5076623;28;20488;-48
2022/08/23 04:48:08;;;;;;;8.18;6.38;;;;;;;16.89;70.23;100147.19;5074891;28;20067;-49
2022/08/23 04:50:36;;;;;;;9.05;6.20;;;;;;;16.62;71.30;100160.97;5062048;28;20132;-49
2022/08/23 04:53:03;;;;;;;10.02;6.70;;;;;;;16.68;71.01;100165.16;5063871;28;20049;-48
2022/08/23 04:55:30;;;;;;;8.95;6.25;;;;;;;16.63;71.29;100169.06;5071907;28;20525;-49
2022/08/23 04:57:58;;;;;;;6.90;5.60;;;;;;;16.72;71.25;100170.88;5072597;28;20488;-48
2022/08/23 05:00:25;;;;;;;10.40;6.32;;;;;;;16.78;70.97;100169.41;5080537;28;20055;-48
2022/08/23 05:02:52;;;;;;;6.93;6.20;;;;;;;16.80;71.02;100175.50;5072399;28;20057;-48
2022/08/23 05:05:21;;;;;;;8.07;5.60;;;;;;;17.02;70.04;100171.22;5072338;28;20409;-49
2022/08/23 05:07:48;;;;;;;9.00;5.60;;;;;;;17.04;69.89;100178.09;5072482;28;20060;-47
2022/08/23 05:10:16;;;;;;;11.88;7.03;;;;;;;16.95;70.34;100180.31;5071638;28;20057;-48
2022/08/23 05:12:44;;;;;;;6.85;5.70;;;;;;;16.87;70.65;100180.50;5087461;28;20051;-49
2022/08/23 05:15:12;;;;;;;8.13;6.35;;;;;;;17.14;69.71;100181.56;5087970;28;20044;-49
2022/08/23 05:17:39;;;;;;;11.77;5.13;;;;;;;16.99;70.12;100181.22;5072250;28;20059;-51
2022/08/23 05:20:09;;;;;;;13.25;6.35;;;;;;;16.92;70.94;100178.22;5072014;28;20049;-50
2022/08/23 05:22:40;;;;;;;5.32;4.80;;;;;;;17.15;70.08;100183.19;5072711;28;20048;-48
2022/08/23 05:25:08;;;;;;;7.18;5.63;;;;;;;17.29;69.30;100183.50;5074672;28;20044;-48
2022/08/23 05:27:36;;;;;;;18.75;8.18;;;;;;;17.47;68.47;100180.28;5083961;28;20519;-66
2022/08/23 05:30:05;;;;;;;12.35;6.03;;;;;;;17.64;68.01;100185.50;5072451;28;20044;-66
2022/08/23 05:32:32;;;;;;;6.53;4.97;;;;;;;17.78;67.40;100194.22;5071439;28;20067;-67
2022/08/23 05:34:59;;;;;;;6.88;4.68;;;;;;;17.90;67.08;100187.69;5068082;28;20507;-66
2022/08/23 05:37:27;;;;;;;7.03;4.80;;;;;;;18.01;66.39;100187.88;5072507;28;20057;-66
2022/08/23 05:39:56;;;;;;;8.38;5.03;;;;;;;18.12;65.89;100200.22;5068630;28;20527;-66
2022/08/23 05:42:23;;;;;;;6.13;4.87;;;;;;;18.19;65.87;100196.72;5071528;28;20048;-66
2022/08/23 05:44:51;;;;;;;6.78;4.63;;;;;;;18.27;65.11;100192.84;5061718;28;20475;-66
2022/08/23 05:47:19;;;;;;;5.32;3.97;;;;;;;18.37;65.27;100191.41;5072289;28;20386;-66
2022/08/23 05:49:46;;;;;;;5.70;4.70;;;;;;;18.49;65.00;100196.84;5070110;28;20413;-67
2022/08/23 05:52:14;;;;;;;11.70;8.82;;;;;;;18.57;64.56;100187.34;5072259;28;20085;-66
2022/08/23 05:54:42;;;;;;;6.78;4.70;;;;;;;18.67;64.46;100198.00;5072935;28;20047;-65
2022/08/23 05:57:10;;;;;;;7.78;4.95;;;;;;;18.75;64.51;100201.78;5076754;28;20156;-66
2022/08/23 05:59:38;;;;;;;8.07;4.35;;;;;;;18.86;64.27;100197.13;5061067;28;20060;-66
2022/08/23 06:02:05;;;;;;;11.10;4.65;;;;;;;18.94;64.27;100206.56;5064928;28;20044;-66
2022/08/23 06:04:33;;;;;;;22.40;7.65;;;;;;;19.08;64.51;100213.63;5069810;28;20041;-68
2022/08/23 06:07:00;;;;;;;14.60;6.03;;;;;;;19.20;63.83;100197.28;5070860;28;20044;-66
2022/08/23 06:09:27;;;;;;;9.35;4.88;;;;;;;19.34;63.79;100215.63;5071459;28;20416;-66
2022/08/23 06:11:55;;;;;;;10.82;5.53;;;;;;;19.45;63.21;100223.06;5068898;28;20515;-66
2022/08/23 06:14:23;;;;;;;8.35;5.15;;;;;;;19.60;62.79;100211.97;5071578;28;20044;-67
2022/08/23 06:16:51;;;;;;;10.40;4.80;;;;;;;19.62;62.54;100226.53;5071381;28;20048;-66
2022/08/23 06:19:19;;;;;;;9.70;4.85;;;;;;;19.68;62.64;100213.72;5071774;28;20053;-67
2022/08/23 06:21:46;;;;;;;6.20;4.45;;;;;;;19.81;62.85;100219.97;5071694;28;20049;-67
2022/08/23 06:24:14;;;;;;;8.80;5.30;;;;;;;19.93;62.76;100224.53;5071820;28;20055;-68
2022/08/23 06:26:45;;;;;;;12.20;4.60;;;;;;;20.01;62.29;100214.94;5075455;28;20052;-67
2022/08/23 06:29:17;;;;;;;7.20;3.90;;;;;;;20.12;62.11;100218.75;5074238;28;20048;-67
2022/08/23 06:31:48;;;;;;;6.68;4.05;;;;;;;20.27;61.72;100223.34;5074458;28;20060;-66
2022/08/23 06:34:19;;;;;;;6.05;4.20;;;;;;;20.34;61.41;100216.16;5077203;28;20407;-67
2022/08/23 06:36:48;;;;;;;4.63;4.05;;;;;;;20.39;61.11;100213.78;5095896;28;20052;-66
2022/08/23 06:39:18;;;;;;;8.60;4.43;;;;;;;20.50;60.45;100218.75;5080284;28;20516;-67
2022/08/23 06:41:47;;;;;;;;;;;;;;;20.57;60.56;100230.13;5075807;28;20048;-66
2022/08/23 06:44:14;;;;;;;7.88;4.40;;;;;;;20.68;61.06;100222.59;5075123;28;19921;-67
2022/08/23 06:46:42;;;;;;;6.40;4.05;;;;;;;20.81;60.95;100223.94;5076738;28;20051;-66
2022/08/23 06:49:11;;;;;;;5.97;4.55;;;;;;;20.94;60.29;100224.44;5079994;28;20059;-66
2022/08/23 06:51:42;;;;;;;6.20;4.65;;;;;;;20.99;58.96;100221.25;5075152;28;20044;-66
2022/08/23 06:54:11;;;;;;;5.47;3.78;;;;;;;21.12;57.07;100218.91;5075285;28;20110;-67
2022/08/23 06:56:40;;;;;;;6.22;3.35;;;;;;;21.28;54.66;100219.44;5075523;28;20432;-64
2022/08/23 06:59:07;;;;;;;5.15;3.00;;;;;;;21.41;54.19;100216.31;5074972;28;20086;-67
2022/08/23 07:01:40;;;;;;;6.45;3.58;;;;;;;21.56;52.93;100220.06;5084796;28;20071;-66
2022/08/23 07:04:10;;;;;;;8.77;2.95;;;;;;;21.65;53.07;100221.34;5086668;28;20094;-66
2022/08/23 07:06:38;;;;;;;5.95;3.30;;;;;;;21.85;52.16;100218.19;5075064;28;20059;-67
2022/08/23 07:09:06;;;;;;;5.47;3.20;;;;;;;21.95;51.43;100230.81;5074975;28;20417;-66
2022/08/23 07:11:34;;;;;;;5.60;3.08;;;;;;;22.09;50.48;100228.84;5075146;28;20079;-67
2022/08/23 07:14:05;;;;;;;7.88;3.30;;;;;;;22.26;50.10;100221.63;5074744;28;20115;-67
2022/08/23 07:16:34;;;;;;;7.50;3.60;;;;;;;22.45;49.39;100228.19;5093720;28;20409;-67
2022/08/23 07:19:02;;;;;;;8.35;3.65;;;;;;;22.66;49.38;100227.41;5093046;28;20056;-66
2022/08/23 07:21:31;;;;;;;6.55;3.55;;;;;;;22.79;49.00;100228.63;5075033;28;20057;-66
2022/08/23 07:23:58;;;;;;;9.90;3.67;;;;;;;23.04;48.53;100216.50;5074675;28;20070;-66
2022/08/23 07:26:26;;;;;;;13.50;3.70;;;;;;;23.36;47.30;100227.03;5074874;28;20482;-66
2022/08/23 07:28:53;;;;;;;7.35;2.80;;;;;;;23.94;46.43;100224.88;5073994;28;20052;-66
2022/08/23 07:31:25;;;;;;;16.75;4.07;;;;;;;24.97;44.38;100228.38;5082905;28;20051;-66
2022/08/23 07:33:54;;;;;;;13.27;3.58;;;;;;;26.09;42.06;100223.22;5094971;28;20059;-66
2022/08/23 07:36:23;;;;;;;14.70;3.28;;;;;;;27.21;40.69;100222.38;5084085;28;20056;-66
2022/08/23 07:38:52;;;;;;;13.30;3.38;;;;;;;27.94;38.84;100223.50;5095100;28;20048;-66
2022/08/23 07:41:20;;;;;;;21.33;3.55;;;;;;;29.09;36.44;100227.44;5079156;28;20048;-68
2022/08/23 07:43:48;;;;;;;20.75;3.30;;;;;;;30.18;34.11;100234.00;5075010;28;20385;-66
2022/08/23 07:46:15;;;;;;;11.52;3.15;;;;;;;31.27;32.26;100230.16;5081189;28;20045;-66
2022/08/23 07:48:42;;;;;;;18.13;3.45;;;;;;;32.34;30.09;100229.13;5074177;28;20417;-66
2022/08/23 07:51:12;;;;;;;14.70;3.25;;;;;;;33.54;28.73;100220.91;5074298;28;20386;-66
2022/08/23 07:53:41;;;;;;;8.60;2.92;;;;;;;34.56;27.05;100226.59;5074309;28;20055;-67
2022/08/23 07:56:12;;;;;;;7.32;2.63;;;;;;;35.51;26.15;100227.25;5074169;28;20049;-66
2022/08/23 07:58:40;;;;;;;9.20;2.35;;;;;;;36.27;24.59;100226.97;5079318;28;20055;-67
2022/08/23 08:01:14;;;;;;;23.98;3.60;;;;;;;37.30;22.72;100228.91;5086970;28;20055;-67
2022/08/23 08:03:42;;;;;;;8.75;2.78;;;;;;;37.72;22.67;100230.50;5094590;28;20056;-67
2022/08/23 08:06:12;;;;;;;;;;;;;;;37.89;20.72;100219.06;5087391;28;20059;-64
2022/08/23 08:08:40;;;;;;;4.78;1.92;;;;;;;37.53;20.36;100224.19;5073737;28;20300;-67
2022/08/23 08:11:10;;;;;;;3.28;1.90;;;;;;;37.57;20.35;100218.97;5073754;28;20052;-67
2022/08/23 08:13:38;;;;;;;2.70;1.90;;;;;;;37.33;20.28;100224.16;5083506;28;20044;-64
2022/08/23 08:16:07;;;;;;;6.40;1.75;;;;;;;36.71;20.82;100229.84;5089916;28;20043;-66
2022/08/23 08:18:35;;;;;;;3.65;1.80;;;;;;;36.90;21.26;100236.22;5073654;28;20493;-66
2022/08/23 08:21:02;;;;;;;6.95;2.35;;;;;;;37.25;20.83;100234.63;5076012;28;20055;-66
2022/08/23 08:23:30;;;;;;;2.70;1.95;;;;;;;37.36;20.40;100235.59;5086848;28;20149;-65
2022/08/23 08:26:02;;;;;;;5.68;2.10;;;;;;;38.05;20.01;100232.25;5076462;28;20519;-66
2022/08/23 08:28:30;;;;;;;2.95;2.20;;;;;;;38.53;19.47;100230.84;5073936;28;20504;-65
2022/08/23 08:30:58;;;;;;;3.00;2.10;;;;;;;39.25;18.88;100228.97;5073422;28;20064;-68
2022/08/23 08:33:26;;;;;;;4.78;2.20;;;;;;;39.34;18.27;100240.44;5073179;28;20063;-66
2022/08/23 08:35:54;;;;;;;4.22;2.00;;;;;;;39.73;18.70;100234.00;5072839;28;20056;-66
2022/08/23 08:38:21;;;;;;;3.20;2.33;;;;;;;40.96;17.21;100235.50;5076885;28;20052;-66
2022/08/23 08:40:53;;;;;;;4.63;2.20;;;;;;;42.45;16.58;100235.16;5073068;28;20405;-65
2022/08/23 08:43:30;;;;;;;2.88;1.83;;;;;;;42.38;15.87;100233.59;5072852;28;20055;-65
2022/08/23 08:46:06;;;;;;;4.53;2.10;;;;;;;43.47;15.38;100229.91;5093503;28;20059;-65
2022/08/23 08:48:41;;;;;;;4.07;2.75;;;;;;;44.99;13.94;100226.81;5077816;28;20401;-65
2022/08/23 08:51:19;;;;;;;3.72;1.90;;;;;;;45.78;13.07;100236.97;5082640;28;20055;-66
2022/08/23 08:53:50;;;;;;;4.28;2.00;;;;;;;44.70;14.09;100229.44;5076643;28;20401;-65
2022/08/23 08:56:23;;;;;;;3.83;1.92;;;;;;;46.23;12.83;100230.06;5072728;28;20485;-65
2022/08/23 08:58:53;;;;;;;5.28;2.15;;;;;;;46.13;13.07;100232.72;5072639;28;20057;-65
2022/08/23 09:01:24;;;;;;;4.22;1.80;;;;;;;45.71;12.97;100234.75;5073465;28;20048;-65
2022/08/23 09:03:52;;;;;;;3.55;2.10;;;;;;;47.14;12.51;100228.53;5071995;28;20048;-65
2022/08/23 09:06:25;;;;;;;4.40;2.40;;;;;;;47.21;11.88;100227.03;5085554;28;20048;-65
2022/08/23 09:09:08;;;;;;;4.10;2.40;;;;;;;47.98;11.45;100228.22;5080120;28;20052;-65
2022/08/23 09:11:51;;;;;;;3.20;2.65;;;;;;;48.71;11.55;100222.09;5072670;28;20416;-65
2022/08/23 09:14:36;;;;;;;2.85;2.25;;;;;;;48.58;11.48;100223.81;5072365;28;20448;-64
2022/08/23 09:17:18;;;;;;;2.80;2.10;;;;;;;49.42;10.85;100222.22;5072839;28;20063;-65
2022/08/23 09:19:47;;;;;;;3.95;2.38;;;;;;;49.92;10.08;100221.59;5078262;28;20420;-65
2022/08/23 09:22:21;;;;;;;2.88;2.28;;;;;;;50.78;10.16;100225.63;5093313;28;20503;-63
2022/08/23 09:24:49;;;;;;;3.15;2.25;;;;;;;51.34;9.87;100217.16;5076535;28;20059;-63
2022/08/23 09:27:16;;;;;;;3.53;2.33;;;;;;;51.80;9.17;100221.78;5072676;28;20048;-65
2022/08/23 09:29:53;;;;;;;15.25;2.50;;;;;;;51.67;9.08;100219.94;5072131;28;20428;-63
2022/08/23 09:32:32;;;;;;;3.60;2.22;;;;;;;51.69;9.00;100226.06;5072670;28;20469;-63
2022/08/23 09:35:10;;;;;;;2.80;2.35;;;;;;;50.03;9.89;100223.34;5081723;28;20481;-62
2022/08/23 09:37:57;;;;;;;3.17;2.20;;;;;;;51.09;9.80;100226.88;5092839;28;20056;-65
2022/08/23 09:40:32;;;;;;;3.42;2.03;;;;;;;50.41;9.23;100222.34;5075417;28;20406;-63
2022/08/23 09:43:11;;;;;;;3.13;2.20;;;;;;;50.84;9.47;100220.22;5073184;28;20397;-65
2022/08/23 09:45:42;;;;;;;5.03;2.50;;;;;;;51.44;8.88;100223.97;5074986;28;20082;-64
2022/08/23 09:48:15;;;;;;;3.13;2.33;;;;;;;50.58;10.09;100219.44;5072113;28;20048;-64
2022/08/23 09:50:49;;;;;;;3.65;2.10;;;;;;;51.36;9.40;100223.25;5072200;28;20059;-65
2022/08/23 09:53:25;;;;;;;3.58;2.20;;;;;;;52.01;8.57;100224.25;5072438;28;20056;-65
2022/08/23 09:55:57;;;;;;;3.00;2.13;;;;;;;52.11;8.81;100208.06;5071993;28;20393;-64
2022/08/23 09:58:31;;;;;;;3.53;2.35;;;;;;;52.42;8.80;100206.78;5079439;28;20052;-66
2022/08/23 10:01:10;;;;;;;3.35;2.35;;;;;;;52.54;8.49;100205.63;5074680;28;20057;-64
2022/08/23 10:03:40;;;;;;;2.42;1.85;;;;;;;53.02;8.44;100213.13;5071743;28;20511;-63
2022/08/23 10:06:10;;;;;;;2.97;2.40;;;;;;;52.76;8.21;100212.56;5070997;28;20056;-64
2022/08/23 10:08:50;;;;;;;3.13;2.15;;;;;;;53.13;8.19;100208.75;5072103;28;20508;-64
2022/08/23 10:11:20;;;;;;;3.78;2.70;;;;;;;52.89;8.46;100205.44;5071771;28;20045;-64
2022/08/23 10:13:47;;;;;;;3.15;1.98;;;;;;;53.04;8.21;100198.41;5087041;28;20169;-64
2022/08/23 10:16:27;;;;;;;4.32;2.35;;;;;;;52.78;8.75;100203.03;5078029;28;20075;-64
2022/08/23 10:19:03;;;;;;;3.83;2.30;;;;;;;52.52;8.64;100198.72;5087821;28;20056;-63
2022/08/23 10:21:39;;;;;;;4.27;2.50;;;;;;;53.10;8.45;100192.94;5077452;28;20048;-64
2022/08/23 10:24:15;;;;;;;5.07;2.20;;;;;;;52.82;8.77;100197.44;5072040;28;20471;-64
2022/08/23 10:26:51;;;;;;;4.10;2.58;;;;;;;51.62;8.96;100195.06;5082395;28;20048;-63
2022/08/23 10:29:40;;;;;;;4.72;2.40;;;;;;;51.53;9.11;100199.50;5092384;28;20048;-64
2022/08/23 10:32:21;;;;;;;4.28;2.13;;;;;;;51.99;8.95;100194.38;5075165;28;20374;-63
2022/08/23 10:35:03;;;;;;;3.53;2.30;;;;;;;52.56;8.44;100196.09;5072125;28;20436;-63
2022/08/23 10:37:55;;;;;;;6.18;2.40;;;;;;;52.24;8.80;100195.00;5071611;28;20048;-63
2022/08/23 10:40:28;;;;;;;3.97;2.22;;;;;;;51.18;8.94;100195.78;5074687;28;20052;-63
2022/08/23 10:43:07;;;;;;;6.38;2.50;;;;;;;51.82;8.90;100183.34;5081642;28;20048;-63
2022/08/23 10:45:37;;;;;;;4.10;2.03;;;;;;;51.92;8.92;100187.16;5091647;28;20059;-64
2022/08/23 10:48:21;;;;;;;4.15;2.03;;;;;;;52.41;8.97;100179.25;5057639;28;20386;-63
2022/08/23 10:50:54;;;;;;;5.18;2.30;;;;;;;51.77;8.82;100182.19;5071837;28;20398;-62
2022/08/23 10:53:23;;;;;;;3.10;2.45;;;;;;;52.14;8.51;100179.31;5071781;28;20045;-63
2022/08/23 10:56:02;;;;;;;4.03;2.20;;;;;;;52.28;8.63;100180.47;5088492;28;20492;-63
2022/08/23 10:58:37;;;;;;;5.03;2.30;;;;;;;52.29;8.34;100175.31;5071563;28;20052;-63
2022/08/23 11:01:06;;;;;;;4.72;2.20;;;;;;;51.34;8.45;100181.53;5071677;28;20060;-63
2022/08/23 11:03:36;;;;;;;4.10;2.20;;;;;;;51.54;8.95;100170.63;5071631;28;20052;-64
2022/08/23 11:06:25;;;;;;;3.00;2.13;;;;;;;51.71;8.73;100169.81;5070737;28;20131;-63
2022/08/23 11:09:00;;;;;;;5.15;2.17;;;;;;;51.86;8.84;100165.84;5053266;28;20056;-64
2022/08/23 11:11:44;;;;;;;6.45;2.95;;;;;;;52.34;8.15;100169.06;5068489;28;20051;-63
2022/08/23 11:14:27;;;;;;;3.95;2.22;;;;;;;52.70;8.14;100176.41;5071452;28;20060;-63
2022/08/23 11:16:59;;;;;;;3.35;2.30;;;;;;;52.84;8.52;100173.00;5071300;28;20048;-63
2022/08/23 11:19:46;;;;;;;3.65;2.53;;;;;;;53.32;8.05;100164.13;5074722;28;20060;-63
2022/08/23 11:22:17;;;;;;;4.53;2.90;;;;;;;52.97;8.35;100163.63;5074627;28;20052;-62
2022/08/23 11:24:54;;;;;;;3.40;1.90;;;;;;;52.62;8.28;100172.78;5084356;28;20081;-63
2022/08/23 11:27:37;;;;;;;3.50;2.60;;;;;;;52.82;8.18;100175.81;5088006;28;20044;-62
2022/08/23 11:30:44;;;;;;;5.90;2.55;;;;;;;52.80;8.16;100163.72;5094539;28;20059;-62
2022/08/23 11:33:24;;;;;;;2.83;2.10;;;;;;;51.98;8.23;100166.88;5085824;28;20060;-62
2022/08/23 11:35:54;;;;;;;5.55;2.22;;;;;;;51.65;8.81;100163.34;5074779;28;20052;-62
2022/08/23 11:38:59;;;;;;;4.65;3.00;;;;;;;51.72;9.03;100162.44;5074551;28;20059;-62
2022/08/23 11:41:30;;;;;;;3.42;2.42;;;;;;;52.78;8.27;100163.56;5088770;28;20055;-61
2022/08/23 11:44:26;;;;;;;4.47;2.13;;;;;;;52.71;8.27;100162.31;5082287;28;20060;-62
2022/08/23 11:47:02;;;;;;;3.28;2.40;;;;;;;52.47;8.45;100158.97;5072948;28;20049;-62
2022/08/23 11:50:00;;;;;;;5.22;2.53;;;;;;;52.25;8.45;100160.09;5074051;28;20063;-62
2022/08/23 11:53:00;;;;;;;5.53;2.90;;;;;;;52.15;8.44;100163.84;5072868;28;20080;-61